Time;durP1;ratioP1;P1;durP2;ratioP2;P2;SDS_P1;SDS_P2;PMS_P1;PMS_P2;Temp;Humidity;BMP_temperature;BMP_pressure;BME280_temperature;BME280_humidity;BME280_pressure;Samples;Min_cycle;Max_cycle;Signal;HPM_P1;HPM_P2
2022/11/14 00:00:40;;;;;;;31.55;20.85;;;6.50;99.90;;;;;;5049444;28;20040;-87
2022/11/14 00:03:24;;;;;;;31.50;21.77;;;6.50;99.90;;;;;;5046047;28;20033;-85
2022/11/14 00:06:11;;;;;;;34.42;23.08;;;6.40;99.90;;;;;;5049087;28;20368;-81
2022/11/14 00:08:56;;;;;;;43.25;29.73;;;6.40;99.90;;;;;;5044567;28;20028;-87
2022/11/14 00:11:41;;;;;;;33.90;24.02;;;6.30;99.90;;;;;;5049728;28;21108;-84
2022/11/14 00:14:26;;;;;;;38.78;26.95;;;6.30;99.90;;;;;;5032941;28;20044;-85
2022/11/14 00:17:11;;;;;;;29.60;20.15;;;6.20;99.90;;;;;;5047987;28;20041;-80
2022/11/14 00:19:56;;;;;;;33.88;23.65;;;6.20;99.90;;;;;;5045407;28;20036;-82
2022/11/14 00:22:41;;;;;;;44.03;28.88;;;6.20;99.90;;;;;;5035334;28;20047;-82
2022/11/14 00:25:26;;;;;;;33.88;23.08;;;6.10;99.90;;;;;;5049903;28;20044;-81
2022/11/14 00:28:11;;;;;;;51.80;32.63;;;6.10;99.90;;;;;;5046002;28;20044;-82
2022/11/14 00:30:55;;;;;;;35.75;24.20;;;6.10;99.90;;;;;;5049493;28;20037;-86
2022/11/14 00:33:41;;;;;;;42.00;26.90;;;6.00;99.90;;;;;;5049380;28;20041;-83
2022/11/14 00:36:26;;;;;;;37.10;25.15;;;6.00;99.90;;;;;;5036040;28;20037;-88
2022/11/14 00:39:12;;;;;;;41.35;27.33;;;6.00;99.90;;;;;;5030118;28;20059;-87
2022/11/14 00:41:57;;;;;;;42.72;27.98;;;6.00;99.90;;;;;;5055624;28;20082;-83
2022/11/14 00:44:42;;;;;;;45.97;29.58;;;6.00;99.90;;;;;;5053131;28;20124;-87
2022/11/14 00:47:27;;;;;;;33.83;22.38;;;5.90;99.90;;;;;;5054045;28;20039;-88
2022/11/14 00:50:12;;;;;;;43.88;29.88;;;5.90;99.90;;;;;;5053552;28;20391;-88
2022/11/14 00:52:56;;;;;;;44.28;29.35;;;5.90;99.90;;;;;;5058080;28;20396;-87
2022/11/14 00:55:42;;;;;;;35.28;23.45;;;5.80;99.90;;;;;;5053747;28;20037;-83
2022/11/14 00:58:27;;;;;;;45.83;29.58;;;5.80;99.90;;;;;;5053029;28;20404;-88
2022/11/14 01:01:12;;;;;;;37.22;23.42;;;5.80;99.90;;;;;;5053737;28;20037;-85
2022/11/14 01:03:57;;;;;;;31.75;21.08;;;5.70;99.90;;;;;;5039715;28;20036;-86
2022/11/14 01:06:43;;;;;;;52.78;34.20;;;5.70;99.90;;;;;;5050888;28;20541;-85
2022/11/14 01:09:27;;;;;;;40.10;24.45;;;5.60;99.90;;;;;;5051424;28;20029;-88
2022/11/14 01:12:12;;;;;;;42.55;27.25;;;5.60;99.90;;;;;;5054155;28;20044;-88
2022/11/14 01:14:57;;;;;;;42.28;26.52;;;5.60;99.90;;;;;;5050202;28;20037;-87
2022/11/14 01:17:42;;;;;;;45.47;28.92;;;5.60;99.90;;;;;;5055150;28;20037;-88
2022/11/14 01:20:27;;;;;;;42.75;27.00;;;5.50;99.90;;;;;;5050114;28;20029;-84
2022/11/14 01:23:13;;;;;;;45.40;27.35;;;5.50;99.90;;;;;;5050378;28;20037;-88
2022/11/14 01:26:07;;;;;;;46.47;29.67;;;5.50;99.90;;;;;;5038000;28;20048;-87
2022/11/14 01:28:53;;;;;;;49.20;30.88;;;5.40;99.90;;;;;;5032959;28;20049;-88
2022/11/14 01:31:38;;;;;;;43.15;28.63;;;5.40;99.90;;;;;;5056843;28;20032;-88
2022/11/14 01:34:23;;;;;;;45.50;28.63;;;5.40;99.90;;;;;;5038692;28;20041;-87
2022/11/14 01:37:08;;;;;;;46.38;29.25;;;5.30;99.90;;;;;;5043626;28;20052;-87
2022/11/14 01:39:53;;;;;;;58.08;32.67;;;5.30;99.90;;;;;;5038561;28;20323;-88
2022/11/14 01:42:38;;;;;;;43.40;26.52;;;5.30;99.90;;;;;;5054738;28;20480;-88
2022/11/14 01:45:49;;;;;;;60.85;37.53;;;5.30;99.90;;;;;;5058602;28;20044;-85
2022/11/14 01:48:37;;;;;;;47.67;30.58;;;5.20;99.90;;;;;;5033056;28;20040;-89
2022/11/14 01:51:30;;;;;;;50.70;30.98;;;5.20;99.90;;;;;;5044053;28;20049;-87
2022/11/14 01:54:26;;;;;;;49.13;29.15;;;5.20;99.90;;;;;;5054004;28;20068;-87
2022/11/14 01:57:17;;;;;;;52.33;32.42;;;5.20;99.90;;;;;;5051153;28;20037;-88
2022/11/14 02:00:07;;;;;;;52.08;32.80;;;5.10;99.90;;;;;;5052745;28;20052;-84
2022/11/14 02:02:53;;;;;;;56.63;34.80;;;5.10;99.90;;;;;;5055318;28;20408;-85
2022/11/14 02:05:40;;;;;;;52.43;31.70;;;5.10;99.90;;;;;;5050080;28;20492;-88
2022/11/14 02:08:25;;;;;;;43.63;27.77;;;5.10;99.90;;;;;;5043088;28;20040;-84
2022/11/14 02:11:12;;;;;;;54.30;31.40;;;5.10;99.90;;;;;;5056409;28;20033;-87
2022/11/14 02:13:59;;;;;;;51.35;30.50;;;5.00;99.90;;;;;;5057721;28;20044;-87
2022/11/14 02:16:44;;;;;;;45.85;26.98;;;5.00;99.90;;;;;;5040673;28;20526;-89
2022/11/14 02:19:42;;;;;;;45.58;27.75;;;5.00;99.90;;;;;;5038758;28;20029;-85
2022/11/14 02:22:27;;;;;;;65.80;37.58;;;5.00;99.90;;;;;;5055987;28;20538;-89
2022/11/14 02:25:15;;;;;;;45.15;25.75;;;5.00;99.90;;;;;;5039648;28;20044;-88
2022/11/14 02:28:01;;;;;;;54.28;31.10;;;5.00;99.90;;;;;;5057620;28;20029;-89
2022/11/14 02:30:47;;;;;;;46.20;26.65;;;5.00;99.90;;;;;;5051109;28;20032;-86
2022/11/14 02:33:32;;;;;;;57.47;32.83;;;4.90;99.90;;;;;;5054583;28;20040;-85
2022/11/14 02:36:17;;;;;;;50.33;29.38;;;4.90;99.90;;;;;;5056281;28;20045;-87
2022/11/14 02:39:02;;;;;;;45.55;26.27;;;4.90;99.90;;;;;;5031770;28;20043;-89
2022/11/14 02:41:46;;;;;;;48.35;29.92;;;4.90;99.90;;;;;;5041848;28;20040;-89
2022/11/14 02:44:31;;;;;;;62.08;33.03;;;4.90;99.90;;;;;;5055069;28;20037;-89
2022/11/14 02:47:16;;;;;;;52.53;30.83;;;4.90;99.90;;;;;;5035789;28;20471;-89
2022/11/14 02:50:01;;;;;;;43.77;25.57;;;4.80;99.90;;;;;;5045188;28;20495;-86
2022/11/14 02:52:46;;;;;;;48.92;27.08;;;4.80;99.90;;;;;;5052620;28;20514;-85
2022/11/14 02:55:31;;;;;;;41.53;25.13;;;4.80;99.90;;;;;;5053837;28;20035;-89
2022/11/14 02:58:16;;;;;;;45.72;27.73;;;4.70;99.90;;;;;;5038994;28;20036;-89
2022/11/14 03:01:01;;;;;;;40.25;23.40;;;4.70;99.90;;;;;;5037136;28;20408;-87
2022/11/14 03:03:45;;;;;;;40.00;24.23;;;4.70;99.90;;;;;;5053609;28;20040;-86
2022/11/14 03:06:30;;;;;;;38.33;23.17;;;4.70;99.90;;;;;;5049152;28;20033;-81
2022/11/14 03:09:17;;;;;;;37.03;22.67;;;4.60;99.90;;;;;;5052234;28;20041;-88
2022/11/14 03:12:01;;;;;;;40.30;24.23;;;4.60;99.90;;;;;;5052124;28;20411;-89
2022/11/14 03:14:46;;;;;;;36.67;21.65;;;4.60;99.90;;;;;;5055558;28;20029;-86
2022/11/14 03:17:32;;;;;;;34.08;19.83;;;4.60;99.90;;;;;;5052007;28;20036;-87
2022/11/14 03:20:17;;;;;;;48.85;27.13;;;4.60;99.90;;;;;;5035075;28;20502;-86
2022/11/14 03:23:03;;;;;;;40.27;24.00;;;4.60;99.90;;;;;;5053703;28;20025;-88
2022/11/14 03:25:48;;;;;;;48.80;27.90;;;4.60;99.90;;;;;;5053161;28;20071;-89
2022/11/14 03:28:33;;;;;;;43.60;24.30;;;4.50;99.90;;;;;;5048802;28;20036;-89
2022/11/14 03:31:18;;;;;;;51.28;27.92;;;4.50;99.90;;;;;;5058404;28;20487;-88
2022/11/14 03:34:03;;;;;;;53.38;29.92;;;4.60;99.90;;;;;;5054894;28;20483;-86
2022/11/14 03:36:48;;;;;;;49.58;27.70;;;4.60;99.90;;;;;;5058334;28;20053;-89
2022/11/14 03:39:33;;;;;;;38.42;22.27;;;4.60;99.90;;;;;;5047471;28;20045;-86
2022/11/14 03:42:18;;;;;;;42.65;24.88;;;4.60;99.90;;;;;;5057498;28;20029;-84
2022/11/14 03:45:03;;;;;;;40.55;23.00;;;4.50;99.90;;;;;;5045485;28;20040;-85
2022/11/14 03:47:48;;;;;;;39.50;22.63;;;4.50;99.90;;;;;;5048741;28;20037;-86
2022/11/14 03:50:33;;;;;;;47.70;26.35;;;4.50;99.90;;;;;;5031533;28;20055;-86
2022/11/14 03:53:18;;;;;;;42.58;24.05;;;4.50;99.90;;;;;;5052331;28;20037;-86
2022/11/14 03:56:04;;;;;;;36.33;21.73;;;4.50;99.90;;;;;;5055505;28;20134;-86
2022/11/14 03:58:49;;;;;;;39.65;22.35;;;4.40;99.90;;;;;;5049250;28;20060;-85
2022/11/14 04:01:34;;;;;;;30.85;18.30;;;4.40;99.90;;;;;;5058492;28;20044;-85
2022/11/14 04:04:19;;;;;;;29.60;17.90;;;4.40;99.90;;;;;;5052961;28;20060;-86
2022/11/14 04:07:03;;;;;;;40.25;23.25;;;4.40;99.90;;;;;;5052373;28;20039;-82
2022/11/14 04:09:49;;;;;;;35.92;20.77;;;4.30;99.90;;;;;;5045455;28;20591;-86
2022/11/14 04:12:33;;;;;;;57.80;31.00;;;4.30;99.90;;;;;;5040421;28;20047;-89
2022/11/14 04:15:19;;;;;;;40.75;23.67;;;4.30;99.90;;;;;;5040017;28;20345;-87
2022/11/14 04:18:04;;;;;;;34.58;19.80;;;4.30;99.90;;;;;;5052057;28;20044;-88
2022/11/14 04:20:49;;;;;;;37.40;21.60;;;4.30;99.90;;;;;;5049851;28;20067;-85
2022/11/14 04:23:34;;;;;;;33.38;18.60;;;4.20;99.90;;;;;;5058102;28;20041;-88
2022/11/14 04:26:19;;;;;;;34.72;20.13;;;4.20;99.90;;;;;;5041658;28;20052;-88
2022/11/14 04:29:04;;;;;;;40.63;23.10;;;4.20;99.90;;;;;;5053588;28;20056;-88
2022/11/14 04:31:49;;;;;;;31.17;17.50;;;4.20;99.90;;;;;;5056622;28;20495;-87
2022/11/14 04:34:34;;;;;;;37.55;21.20;;;4.20;99.90;;;;;;5042332;28;20040;-88
2022/11/14 04:37:19;;;;;;;34.00;18.87;;;4.20;99.90;;;;;;5055416;28;20053;-86
2022/11/14 04:40:05;;;;;;;47.03;26.15;;;4.20;99.90;;;;;;5053339;28;20056;-90
2022/11/14 04:42:49;;;;;;;44.83;24.77;;;4.10;99.90;;;;;;5042142;28;20044;-89
2022/11/14 04:45:34;;;;;;;36.78;20.40;;;4.10;99.90;;;;;;5040094;28;20041;-87
2022/11/14 04:48:19;;;;;;;33.60;19.05;;;4.10;99.90;;;;;;5055222;28;20044;-89
2022/11/14 04:51:04;;;;;;;53.63;29.73;;;4.10;99.90;;;;;;5040477;28;20107;-88
2022/11/14 04:53:49;;;;;;;48.58;26.27;;;4.10;99.90;;;;;;5040223;28;20024;-88
2022/11/14 04:56:35;;;;;;;41.28;23.52;;;4.10;99.90;;;;;;5054720;28;20037;-84
2022/11/14 04:59:20;;;;;;;43.40;23.67;;;4.10;99.90;;;;;;5048148;28;20407;-83
2022/11/14 05:02:05;;;;;;;60.85;32.60;;;4.10;99.90;;;;;;5058430;28;20037;-89
2022/11/14 05:04:49;;;;;;;41.20;22.23;;;4.00;99.90;;;;;;5055739;28;20033;-83
2022/11/14 05:07:34;;;;;;;36.15;20.83;;;4.00;99.90;;;;;;5048215;28;20061;-88
2022/11/14 05:10:19;;;;;;;54.97;28.13;;;4.00;99.90;;;;;;5050231;28;20020;-88
2022/11/14 05:13:04;;;;;;;39.53;23.10;;;4.00;99.90;;;;;;5057365;28;20045;-88
2022/11/14 05:15:49;;;;;;;35.57;20.70;;;4.00;99.90;;;;;;5057979;28;20040;-87
2022/11/14 05:18:35;;;;;;;38.47;21.80;;;3.90;99.90;;;;;;5057343;28;20041;-79
2022/11/14 05:21:21;;;;;;;31.52;18.85;;;3.90;99.90;;;;;;5057840;28;20020;-85
2022/11/14 05:24:05;;;;;;;41.28;22.60;;;3.90;99.90;;;;;;5041521;28;20487;-86
2022/11/14 05:26:50;;;;;;;32.93;18.57;;;3.90;99.90;;;;;;5043725;28;20044;-90
2022/11/14 05:29:34;;;;;;;36.00;19.30;;;3.90;99.90;;;;;;5035518;28;20037;-90
2022/11/14 05:32:19;;;;;;;34.58;18.40;;;3.80;99.90;;;;;;5038908;28;20053;-88
2022/11/14 05:35:05;;;;;;;33.65;19.05;;;3.80;99.90;;;;;;5054041;28;20037;-89
2022/11/14 05:37:50;;;;;;;38.70;22.50;;;3.80;99.90;;;;;;5054737;28;20407;-89
2022/11/14 05:40:36;;;;;;;39.40;21.63;;;3.80;99.90;;;;;;5049380;28;20040;-88
2022/11/14 05:43:21;;;;;;;36.03;20.13;;;3.80;99.90;;;;;;5054511;28;20032;-87
2022/11/14 05:46:10;;;;;;;45.27;23.10;;;3.80;99.90;;;;;;5052091;28;20033;-86
2022/11/14 05:48:54;;;;;;;40.40;22.73;;;3.80;99.90;;;;;;5046594;28;20048;-81
2022/11/14 05:51:40;;;;;;;31.92;17.77;;;3.80;99.90;;;;;;5053059;28;20041;-86
2022/11/14 05:54:24;;;;;;;32.05;17.92;;;3.70;99.90;;;;;;5054505;28;20033;-87
2022/11/14 05:57:09;;;;;;;33.63;20.13;;;3.70;99.90;;;;;;5051217;28;20487;-86
2022/11/14 05:59:55;;;;;;;32.77;19.43;;;3.70;99.90;;;;;;5047739;28;20048;-85
2022/11/14 06:02:40;;;;;;;37.63;20.83;;;3.70;99.90;;;;;;5040696;28;20041;-88
2022/11/14 06:05:25;;;;;;;35.25;20.00;;;3.70;99.90;;;;;;5043438;28;20049;-86
2022/11/14 06:08:12;;;;;;;35.50;19.50;;;3.70;99.90;;;;;;5035766;28;20484;-90
2022/11/14 06:11:02;;;;;;;37.47;21.80;;;3.70;99.90;;;;;;5048669;28;20033;-89
2022/11/14 06:13:47;;;;;;;39.00;22.70;;;3.60;99.90;;;;;;5039980;28;20041;-85
2022/11/14 06:16:32;;;;;;;31.77;18.63;;;3.60;99.90;;;;;;5045442;28;20041;-88
2022/11/14 06:19:16;;;;;;;42.57;22.63;;;3.60;99.90;;;;;;5037728;28;20037;-88
2022/11/14 06:22:01;;;;;;;40.43;22.07;;;3.60;99.90;;;;;;5039673;28;20041;-89
2022/11/14 06:24:46;;;;;;;40.23;22.00;;;3.60;99.90;;;;;;5039410;28;20040;-87
2022/11/14 06:27:31;;;;;;;36.07;20.57;;;3.60;99.90;;;;;;5036049;28;20044;-88
2022/11/14 06:30:16;;;;;;;40.33;21.87;;;3.60;99.90;;;;;;5029383;28;20048;-85
2022/11/14 06:33:01;;;;;;;42.90;24.20;;;3.60;99.90;;;;;;5051571;28;20033;-87
2022/11/14 06:35:45;;;;;;;35.67;19.17;;;3.50;99.90;;;;;;5052165;28;20028;-82
2022/11/14 06:38:32;;;;;;;33.77;19.30;;;3.60;99.90;;;;;;5047181;28;20377;-82
2022/11/14 06:41:20;;;;;;;36.85;21.33;;;3.60;99.90;;;;;;5032641;28;20036;-82
2022/11/14 06:44:07;;;;;;;30.05;17.48;;;3.60;99.90;;;;;;5040069;28;20052;-89
2022/11/14 06:46:52;;;;;;;31.87;17.33;;;3.50;99.90;;;;;;5034498;28;20036;-86
2022/11/14 06:49:36;;;;;;;29.43;16.93;;;3.50;99.90;;;;;;5044653;28;20033;-85
2022/11/14 06:52:21;;;;;;;31.67;18.98;;;3.50;99.90;;;;;;5048224;28;20396;-83
2022/11/14 06:55:06;;;;;;;33.33;19.37;;;3.50;99.90;;;;;;5048379;28;20057;-86
2022/11/14 06:57:53;;;;;;;27.40;16.40;;;3.50;99.90;;;;;;5039831;28;20047;-82
2022/11/14 07:00:38;;;;;;;27.70;15.90;;;3.50;99.90;;;;;;5028321;28;20435;-85
2022/11/14 07:03:23;;;;;;;43.03;23.58;;;3.40;99.90;;;;;;5044486;28;20400;-80
2022/11/14 07:06:10;;;;;;;39.20;22.83;;;3.50;99.90;;;;;;5033460;28;20594;-83
2022/11/14 07:08:56;;;;;;;45.87;25.03;;;3.50;99.90;;;;;;5037008;28;20037;-85
2022/11/14 07:11:44;;;;;;;31.60;18.97;;;3.50;99.90;;;;;;5034115;28;20044;-85
2022/11/14 07:14:28;;;;;;;29.30;17.27;;;3.50;99.90;;;;;;5045861;28;20033;-84
2022/11/14 07:17:13;;;;;;;40.30;22.13;;;3.50;99.90;;;;;;5041618;28;20040;-88
2022/11/14 07:19:58;;;;;;;34.23;18.50;;;3.50;99.90;;;;;;5027655;28;20045;-82
2022/11/14 07:22:46;;;;;;;38.00;22.00;;;3.50;99.90;;;;;;5049641;28;20040;-88
2022/11/14 07:25:31;;;;;;;32.93;18.57;;;3.50;99.90;;;;;;5053515;28;20037;-86
2022/11/14 07:28:16;;;;;;;37.27;21.27;;;3.60;99.90;;;;;;5031415;28;20495;-86
2022/11/14 07:31:12;;;;;;;40.95;23.77;;;3.60;99.90;;;;;;5046182;28;20033;-86
2022/11/14 07:33:57;;;;;;;33.57;19.40;;;3.70;99.90;;;;;;5036353;28;20216;-87
2022/11/14 07:36:42;;;;;;;29.77;18.17;;;3.70;99.90;;;;;;5035144;28;20029;-84
2022/11/14 07:39:27;;;;;;;36.77;21.33;;;3.70;99.90;;;;;;5043606;28;20036;-79
2022/11/14 07:42:14;;;;;;;37.30;21.10;;;3.80;99.90;;;;;;5052733;28;20033;-83
2022/11/14 07:44:59;;;;;;;35.67;19.67;;;3.80;99.90;;;;;;5049106;28;20029;-88
2022/11/14 07:47:44;;;;;;;31.03;18.97;;;3.90;99.90;;;;;;5050118;28;20390;-85
2022/11/14 07:50:29;;;;;;;32.97;18.87;;;3.90;99.90;;;;;;5029420;28;20403;-84
2022/11/14 07:53:16;;;;;;;41.65;23.25;;;4.00;99.90;;;;;;5036619;28;20132;-83
2022/11/14 07:56:04;;;;;;;39.60;22.77;;;4.00;99.90;;;;;;5052657;28;20025;-83
2022/11/14 07:58:49;;;;;;;45.77;27.93;;;4.10;99.90;;;;;;5048695;28;20044;-78
2022/11/14 08:01:34;;;;;;;45.17;22.63;;;4.10;99.90;;;;;;5053143;28;20031;-83
2022/11/14 08:04:19;;;;;;;52.57;30.30;;;4.20;99.90;;;;;;5055282;28;20025;-85
2022/11/14 08:07:04;;;;;;;45.00;27.20;;;4.20;99.90;;;;;;5046395;28;20037;-87
2022/11/14 08:09:49;;;;;;;39.50;23.73;;;4.30;99.90;;;;;;5046092;28;20048;-85
2022/11/14 08:12:34;;;;;;;35.28;20.95;;;4.30;99.90;;;;;;5047848;28;20339;-83
2022/11/14 08:15:19;;;;;;;30.08;18.00;;;4.30;99.90;;;;;;5061231;28;20384;-82
2022/11/14 08:18:04;;;;;;;33.28;19.02;;;4.40;99.90;;;;;;5037315;28;20044;-84
2022/11/14 08:20:56;;;;;;;37.47;21.92;;;4.40;99.90;;;;;;5028617;28;20393;-85
2022/11/14 08:23:41;;;;;;;36.78;21.17;;;4.50;99.90;;;;;;5042672;28;20028;-81
2022/11/14 08:26:26;;;;;;;34.60;22.02;;;4.50;99.90;;;;;;5040762;28;20033;-82
2022/11/14 08:29:11;;;;;;;41.03;22.63;;;4.60;99.90;;;;;;5029939;28;20601;-84
2022/11/14 08:31:56;;;;;;;37.10;21.83;;;4.60;99.90;;;;;;5043486;28;20396;-79
2022/11/14 08:34:41;;;;;;;39.08;22.98;;;4.70;99.90;;;;;;5039321;28;20048;-80
2022/11/14 08:37:26;;;;;;;39.70;23.67;;;4.70;99.90;;;;;;5044595;28;20041;-80
2022/11/14 08:40:11;;;;;;;35.50;22.58;;;4.70;99.90;;;;;;5045092;28;20044;-80
2022/11/14 08:43:00;;;;;;;37.33;21.80;;;4.80;99.90;;;;;;5035067;28;20426;-81
2022/11/14 08:45:45;;;;;;;34.70;20.25;;;4.90;99.90;;;;;;5037381;28;20025;-80
2022/11/14 08:48:31;;;;;;;30.67;19.95;;;4.90;99.90;;;;;;5046732;28;20032;-80
2022/11/14 08:51:16;;;;;;;36.10;22.05;;;5.00;99.90;;;;;;5039098;28;20040;-80
2022/11/14 08:54:01;;;;;;;31.85;19.02;;;5.00;99.90;;;;;;5051891;28;20038;-83
2022/11/14 08:56:47;;;;;;;34.90;21.52;;;5.10;99.90;;;;;;5048156;28;20040;-80
2022/11/14 08:59:32;;;;;;;30.35;19.67;;;5.20;99.90;;;;;;5036730;28;20060;-81
2022/11/14 09:02:17;;;;;;;33.33;20.27;;;5.20;99.90;;;;;;5044258;28;20037;-81
2022/11/14 09:05:02;;;;;;;32.05;19.80;;;5.30;99.90;;;;;;5043751;28;20045;-80
2022/11/14 09:07:47;;;;;;;32.67;20.08;;;5.30;99.90;;;;;;5033301;28;20047;-83
2022/11/14 09:10:32;;;;;;;34.95;21.65;;;5.40;99.90;;;;;;5022180;28;20660;-82
2022/11/14 09:13:17;;;;;;;32.20;20.65;;;5.50;99.90;;;;;;5046723;28;20420;-82
2022/11/14 09:16:02;;;;;;;30.45;20.15;;;5.60;99.90;;;;;;5032219;28;20040;-79
2022/11/14 09:18:48;;;;;;;27.80;18.17;;;5.60;99.90;;;;;;5041505;28;20127;-79
2022/11/14 09:21:32;;;;;;;30.20;18.13;;;5.70;99.90;;;;;;5031398;28;20502;-79
2022/11/14 09:24:17;;;;;;;29.60;19.05;;;5.70;99.90;;;;;;5046072;28;20037;-82
2022/11/14 09:27:02;;;;;;;32.28;20.63;;;5.90;99.90;;;;;;5031770;28;20068;-80
2022/11/14 09:29:47;;;;;;;33.58;20.10;;;5.90;99.90;;;;;;5038652;28;20439;-82
2022/11/14 09:32:32;;;;;;;27.70;17.50;;;6.00;99.90;;;;;;5042489;28;20059;-81
2022/11/14 09:35:17;;;;;;;25.48;15.15;;;6.20;99.90;;;;;;5045472;28;20040;-80
2022/11/14 09:38:07;;;;;;;22.95;15.13;;;6.30;99.90;;;;;;5029293;28;20037;-81
2022/11/14 09:41:07;;;;;;;29.73;17.42;;;6.50;99.90;;;;;;5037995;28;20043;-81
2022/11/14 09:44:40;;;;;;;25.88;16.52;;;6.70;99.90;;;;;;5042329;28;20040;-83
2022/11/14 09:47:30;;;;;;;24.33;17.05;;;7.00;99.90;;;;;;5030964;28;20052;-82
2022/11/14 09:50:20;;;;;;;24.55;16.08;;;7.30;99.90;;;;;;5023324;28;20056;-81
2022/11/14 09:53:15;;;;;;;25.90;16.77;;;7.60;99.90;;;;;;5047350;28;20029;-82
2022/11/14 09:56:00;;;;;;;23.30;14.07;;;7.90;99.90;;;;;;5051498;28;20033;-83
2022/11/14 09:58:45;;;;;;;21.85;13.80;;;8.10;99.90;;;;;;5033025;28;20072;-79
2022/11/14 10:01:44;;;;;;;23.80;16.20;;;8.50;99.90;;;;;;5052408;28;20038;-80
2022/11/14 10:04:54;;;;;;;23.08;16.38;;;8.70;99.90;;;;;;5040271;28;20044;-83
2022/11/14 10:07:50;;;;;;;20.83;14.23;;;8.90;99.90;;;;;;5051856;28;20040;-81
2022/11/14 10:10:44;;;;;;;22.52;14.68;;;9.00;99.90;;;;;;5047799;28;20399;-80
2022/11/14 10:13:49;;;;;;;22.02;15.57;;;9.20;99.90;;;;;;5035212;28;20040;-81
2022/11/14 10:16:58;;;;;;;20.65;14.52;;;9.30;99.90;;;;;;5044687;28;20041;-81
2022/11/14 10:19:56;;;;;;;24.10;15.13;;;9.60;99.90;;;;;;5042654;28;20543;-80
2022/11/14 10:23:00;;;;;;;22.67;15.45;;;9.80;99.90;;;;;;5040594;28;20040;-84
2022/11/14 10:26:29;;;;;;;19.05;13.80;;;10.10;99.90;;;;;;5041178;28;20036;-82
2022/11/14 10:29:55;;;;;;;18.80;12.98;;;10.30;99.90;;;;;;5042087;28;20041;-80
2022/11/14 10:33:09;;;;;;;19.70;13.38;;;10.50;99.90;;;;;;5041442;28;20041;-79
2022/11/14 10:36:05;;;;;;;17.70;13.90;;;10.50;99.90;;;;;;5053365;28;20041;-79
2022/11/14 10:39:01;;;;;;;20.23;14.32;;;10.10;99.90;;;;;;5047925;28;20049;-79
2022/11/14 10:41:50;;;;;;;21.52;12.60;;;9.80;99.90;;;;;;5031731;28;20047;-82
2022/11/14 10:44:46;;;;;;;20.15;14.15;;;9.60;99.90;;;;;;5043345;28;20037;-82
2022/11/14 10:47:42;;;;;;;22.13;15.70;;;9.40;99.90;;;;;;5029785;28;20066;-81
2022/11/14 10:50:50;;;;;;;18.20;13.90;;;9.30;99.90;;;;;;5036136;28;20029;-79
2022/11/14 10:53:56;;;;;;;18.05;13.05;;;9.10;99.90;;;;;;5034061;28;20043;-85
2022/11/14 10:56:49;;;;;;;20.15;14.57;;;9.10;99.90;;;;;;5048184;28;20025;-85
2022/11/14 10:59:35;;;;;;;19.40;14.00;;;9.00;99.90;;;;;;5027660;28;20053;-88
2022/11/14 11:02:19;;;;;;;21.50;14.68;;;9.00;99.90;;;;;;5049394;28;20040;-82
2022/11/14 11:05:14;;;;;;;20.25;14.60;;;8.90;99.90;;;;;;5048632;28;20021;-88
2022/11/14 11:14:17;;;;;;;25.02;16.13;;;8.90;99.90;;;;;;5049774;28;20029;-83
2022/11/14 11:17:11;;;;;;;24.58;15.43;;;8.90;99.90;;;;;;5028967;28;20045;-86
2022/11/14 11:20:29;;;;;;;23.92;16.70;;;8.90;99.90;;;;;;5039806;28;20048;-78
2022/11/14 11:23:22;;;;;;;25.63;16.20;;;8.90;99.90;;;;;;5039542;28;20037;-81
2022/11/14 11:26:19;;;;;;;22.48;14.98;;;8.90;99.90;;;;;;5043656;28;20024;-86
2022/11/14 11:29:06;;;;;;;22.77;14.35;;;9.00;99.90;;;;;;5031723;28;20392;-85
2022/11/14 11:31:53;;;;;;;21.25;13.18;;;9.00;99.90;;;;;;5032340;28;20420;-83
2022/11/14 11:34:38;;;;;;;23.13;14.85;;;9.10;99.90;;;;;;5058690;28;20044;-84
2022/11/14 11:37:34;;;;;;;28.63;20.00;;;9.20;99.90;;;;;;5033684;28;20041;-85
2022/11/14 11:40:27;;;;;;;28.25;19.10;;;9.30;99.90;;;;;;5039445;28;20063;-84
2022/11/14 11:43:37;;;;;;;30.90;21.67;;;9.30;99.90;;;;;;5044798;28;20029;-80
2022/11/14 11:46:40;;;;;;;32.28;21.48;;;9.20;99.90;;;;;;5047242;28;20389;-84
2022/11/14 11:49:48;;;;;;;31.50;21.58;;;9.10;99.90;;;;;;5043470;28;20033;-84
2022/11/14 11:52:49;;;;;;;31.58;23.65;;;9.10;99.90;;;;;;5034408;28;20046;-82
2022/11/14 11:55:44;;;;;;;28.35;20.27;;;9.00;99.90;;;;;;5036733;28;20050;-82
2022/11/14 11:58:36;;;;;;;26.52;18.85;;;9.00;99.90;;;;;;5031744;28;20052;-83
2022/11/14 12:01:21;;;;;;;33.63;21.85;;;9.00;99.90;;;;;;5044300;28;20404;-85
2022/11/14 12:04:06;;;;;;;28.08;20.48;;;9.00;99.90;;;;;;5046522;28;20037;-84
2022/11/14 12:07:10;;;;;;;30.77;21.70;;;9.00;99.90;;;;;;5042380;28;20041;-84
2022/11/14 12:09:58;;;;;;;27.20;19.13;;;9.00;99.90;;;;;;5042234;28;20036;-84
2022/11/14 12:12:43;;;;;;;37.30;24.63;;;8.90;99.90;;;;;;5048813;28;20052;-85
2022/11/14 12:15:40;;;;;;;34.03;23.52;;;8.90;99.90;;;;;;5046402;28;20032;-82
2022/11/14 12:18:36;;;;;;;27.38;21.80;;;8.90;99.90;;;;;;5039584;28;20045;-81
2022/11/14 12:21:46;;;;;;;27.77;20.45;;;8.90;99.90;;;;;;5031627;28;20041;-87
2022/11/14 12:24:57;;;;;;;32.38;21.60;;;8.90;99.90;;;;;;5041561;28;20469;-84
2022/11/14 12:28:07;;;;;;;25.60;20.08;;;8.90;99.90;;;;;;5043364;28;20037;-86
2022/11/14 12:30:57;;;;;;;26.35;18.30;;;8.90;99.90;;;;;;5029042;28;20495;-85
2022/11/14 12:33:51;;;;;;;24.63;18.42;;;9.00;99.90;;;;;;5040945;28;20040;-88
2022/11/14 12:36:38;;;;;;;24.92;19.52;;;9.00;99.90;;;;;;5048806;28;20045;-86
2022/11/14 12:39:26;;;;;;;27.55;19.52;;;9.00;99.90;;;;;;5045786;28;20033;-86
2022/11/14 12:42:18;;;;;;;28.55;21.48;;;9.00;99.90;;;;;;5053818;28;20048;-84
2022/11/14 12:45:03;;;;;;;25.02;17.33;;;9.00;99.90;;;;;;5044624;28;20680;-84
2022/11/14 12:48:15;;;;;;;32.13;22.20;;;9.00;99.90;;;;;;5042071;28;20041;-79
2022/11/14 12:51:02;;;;;;;25.92;16.73;;;9.10;99.90;;;;;;5040666;28;20055;-81
2022/11/14 12:53:47;;;;;;;25.17;16.98;;;9.00;99.90;;;;;;5029790;28;20048;-80
2022/11/14 12:56:31;;;;;;;26.92;18.55;;;9.10;99.90;;;;;;5045049;28;20039;-79
2022/11/14 12:59:25;;;;;;;30.10;18.73;;;9.10;99.90;;;;;;5055089;28;20092;-84
2022/11/14 13:02:49;;;;;;;22.95;15.43;;;9.10;99.90;;;;;;5042315;28;20040;-79
2022/11/14 13:05:56;;;;;;;31.65;22.58;;;9.10;99.90;;;;;;5033013;28;20041;-80
2022/11/14 13:09:01;;;;;;;26.15;19.42;;;9.10;99.90;;;;;;5046354;28;20029;-80
2022/11/14 13:21:45;;;;;;;17.83;11.98;;;9.10;99.90;;;;;;5036301;28;20033;-78
2022/11/14 13:24:59;;;;;;;18.70;13.75;;;9.10;99.90;;;;;;5041748;28;20518;-79
2022/11/14 13:27:44;;;;;;;15.30;10.85;;;9.10;99.90;;;;;;5045863;28;20107;-80
2022/11/14 13:31:17;;;;;;;20.48;14.38;;;9.10;99.90;;;;;;5041335;28;20032;-82
2022/11/14 13:34:24;;;;;;;23.30;16.35;;;9.10;99.90;;;;;;5048454;28;20397;-82
2022/11/14 13:37:18;;;;;;;20.35;13.63;;;9.00;99.90;;;;;;5049636;28;20135;-81
2022/11/14 13:40:21;;;;;;;21.60;16.15;;;8.90;99.90;;;;;;5049702;28;20028;-82
2022/11/14 13:43:21;;;;;;;20.02;14.25;;;8.90;99.90;;;;;;5039613;28;20032;-80
2022/11/14 13:46:13;;;;;;;18.00;12.85;;;8.90;99.90;;;;;;5039149;28;20033;-83
2022/11/14 13:49:23;;;;;;;17.23;12.32;;;8.80;99.90;;;;;;5038241;28;20507;-83
2022/11/14 13:52:12;;;;;;;14.57;10.88;;;8.80;99.90;;;;;;5042239;28;20033;-79
2022/11/14 13:54:57;;;;;;;13.32;9.93;;;8.80;99.90;;;;;;5043701;28;20040;-81
2022/11/14 13:57:51;;;;;;;16.83;11.95;;;8.80;99.90;;;;;;5035056;28;20040;-83
2022/11/14 14:01:00;;;;;;;19.08;13.40;;;8.80;99.90;;;;;;5039023;28;20037;-82
2022/11/14 14:04:04;;;;;;;17.25;11.63;;;8.80;99.90;;;;;;5045778;28;20040;-82
2022/11/14 14:06:56;;;;;;;;;;;8.80;99.90;;;;;;5042331;28;20051;-83
2022/11/14 14:09:53;;;;;;;18.85;12.02;;;8.70;99.90;;;;;;5028436;28;19924;-82
2022/11/14 14:12:56;;;;;;;18.13;12.60;;;8.80;99.90;;;;;;5033344;28;20045;-83
2022/11/14 14:15:54;;;;;;;18.13;12.77;;;8.70;99.90;;;;;;5035577;28;20041;-82
2022/11/14 14:18:47;;;;;;;19.15;13.60;;;8.70;99.90;;;;;;5043514;28;20400;-85
2022/11/14 14:21:50;;;;;;;;;;;8.70;99.90;;;;;;5042299;28;20053;-81
2022/11/14 14:24:59;;;;;;;15.23;11.52;;;8.70;99.90;;;;;;5030794;28;19909;-81
2022/11/14 14:28:14;;;;;;;17.75;13.55;;;8.60;99.90;;;;;;5033584;28;20128;-85
2022/11/14 14:31:15;;;;;;;18.17;11.82;;;8.60;99.90;;;;;;5046381;28;20052;-84
2022/11/14 14:34:00;;;;;;;17.30;12.52;;;8.60;99.90;;;;;;5043126;28;20418;-85
2022/11/14 14:36:54;;;;;;;17.58;11.82;;;8.60;99.90;;;;;;5040881;28;20033;-85
2022/11/14 14:39:38;;;;;;;17.08;12.75;;;8.60;99.90;;;;;;5037688;28;20393;-84
2022/11/14 14:42:25;;;;;;;21.75;15.13;;;8.60;99.90;;;;;;5030983;28;20040;-86
2022/11/14 14:45:15;;;;;;;17.75;12.68;;;8.70;99.90;;;;;;5041644;28;20040;-86
2022/11/14 14:48:11;;;;;;;17.88;12.55;;;8.60;99.90;;;;;;5047962;28;20044;-86